createdAt,value
2023-05-19T00:02:12.683Z,2.37
2023-05-19T00:04:41.512Z,2.40
2023-05-19T00:07:12.077Z,2.40
2023-05-19T00:09:40.410Z,2.30
2023-05-19T00:12:10.653Z,2.97
2023-05-19T00:14:40.524Z,2.70
2023-05-19T00:17:09.415Z,2.30
2023-05-19T00:19:40.385Z,2.80
2023-05-19T00:22:08.291Z,2.07
2023-05-19T00:24:36.172Z,2.33
2023-05-19T00:27:04.223Z,2.77
2023-05-19T00:29:32.585Z,2.50
2023-05-19T00:32:02.017Z,2.70
2023-05-19T00:34:30.103Z,2.63
2023-05-19T00:36:58.046Z,2.77
2023-05-19T00:39:25.975Z,3.20
2023-05-19T00:41:54.129Z,2.97
2023-05-19T00:44:22.026Z,2.80
2023-05-19T00:46:49.953Z,2.33
2023-05-19T00:49:19.300Z,2.40
2023-05-19T00:51:47.314Z,2.97
2023-05-19T00:54:18.251Z,2.40
2023-05-19T00:56:46.193Z,2.70
2023-05-19T00:59:14.102Z,3.00
2023-05-19T01:01:42.092Z,3.03
2023-05-19T01:04:11.456Z,2.70
2023-05-19T01:06:41.018Z,2.50
2023-05-19T01:09:09.210Z,2.43
2023-05-19T01:11:37.118Z,2.83
2023-05-19T01:14:05.115Z,2.70
2023-05-19T01:16:38.249Z,2.80
2023-05-19T01:19:15.504Z,2.70
2023-05-19T01:22:15.762Z,2.43
2023-05-19T01:25:13.073Z,2.77
2023-05-19T01:27:50.284Z,2.63
2023-05-19T01:30:30.784Z,2.80
2023-05-19T01:33:01.725Z,2.90
2023-05-19T01:35:30.778Z,2.30
2023-05-19T01:38:00.720Z,3.10
2023-05-19T01:40:32.218Z,2.53
2023-05-19T01:43:01.754Z,2.80
2023-05-19T01:45:32.881Z,2.50
2023-05-19T01:48:02.630Z,2.80
2023-05-19T01:50:31.774Z,3.00
2023-05-19T01:53:00.258Z,2.57
2023-05-19T01:55:28.755Z,2.40
2023-05-19T01:58:14.434Z,2.80
2023-05-19T02:00:52.575Z,2.53
2023-05-19T02:03:31.136Z,3.43
2023-05-19T02:06:05.061Z,2.80
2023-05-19T02:08:43.356Z,2.43
2023-05-19T02:11:15.643Z,2.67
2023-05-19T02:13:45.785Z,2.73
2023-05-19T02:16:15.803Z,2.50
2023-05-19T02:18:45.510Z,2.70
2023-05-19T02:21:13.742Z,3.47
2023-05-19T02:23:42.175Z,2.47
2023-05-19T02:26:10.071Z,2.73
2023-05-19T02:28:37.958Z,2.90
2023-05-19T02:31:08.853Z,2.67
2023-05-19T02:33:38.145Z,2.70
2023-05-19T02:36:06.959Z,2.13
2023-05-19T02:38:34.826Z,2.67
2023-05-19T02:41:03.276Z,2.40
2023-05-19T02:43:31.492Z,2.43
2023-05-19T02:45:59.384Z,2.53
2023-05-19T02:48:27.986Z,2.63
2023-05-19T02:50:57.220Z,2.67
2023-05-19T02:53:25.138Z,2.80
2023-05-19T02:55:53.176Z,2.90
2023-05-19T02:58:21.440Z,2.77
2023-05-19T03:00:49.319Z,2.77
2023-05-19T03:03:18.130Z,2.80
2023-05-19T03:05:46.163Z,2.60
2023-05-19T03:08:15.417Z,2.80
2023-05-19T03:10:43.275Z,2.30
2023-05-19T03:13:11.301Z,2.90
2023-05-19T03:15:39.482Z,2.60
2023-05-19T03:18:07.963Z,2.37
2023-05-19T03:20:35.972Z,2.63
2023-05-19T03:23:03.886Z,2.53
2023-05-19T03:25:33.128Z,2.80
2023-05-19T03:28:01.596Z,3.47
2023-05-19T03:30:29.665Z,3.80
2023-05-19T03:33:06.586Z,5.10
2023-05-19T03:35:34.753Z,6.90
2023-05-19T03:38:02.883Z,8.87
2023-05-19T03:40:31.428Z,10.83
2023-05-19T03:43:07.347Z,9.20
2023-05-19T03:45:41.370Z,10.40
2023-05-19T03:48:29.368Z,9.13
2023-05-19T03:51:16.071Z,5.67
2023-05-19T03:53:45.682Z,4.70
2023-05-19T03:56:13.732Z,4.03
2023-05-19T03:58:44.375Z,3.00
2023-05-19T04:01:12.557Z,3.07
2023-05-19T04:03:40.764Z,2.70
2023-05-19T04:06:09.510Z,2.70
2023-05-19T04:08:37.376Z,2.77
2023-05-19T04:11:05.413Z,2.60
2023-05-19T04:13:34.238Z,2.10
2023-05-19T04:16:03.479Z,3.13
2023-05-19T04:18:31.525Z,2.60
2023-05-19T04:20:59.417Z,2.53
2023-05-19T04:23:27.274Z,2.67
2023-05-19T04:25:57.118Z,3.03
2023-05-19T04:28:25.285Z,3.03
2023-05-19T04:30:53.260Z,2.50
2023-05-19T04:33:22.741Z,2.67
2023-05-19T04:35:51.741Z,2.97
2023-05-19T04:38:22.209Z,2.60
2023-05-19T04:40:52.028Z,3.03
2023-05-19T04:43:22.235Z,3.17
2023-05-19T04:45:51.481Z,2.93
2023-05-19T04:48:23.127Z,2.60
2023-05-19T04:50:51.978Z,3.00
2023-05-19T04:53:22.029Z,2.77
2023-05-19T04:55:50.457Z,2.33
2023-05-19T04:58:18.426Z,2.53
2023-05-19T05:00:46.546Z,2.60
2023-05-19T05:03:15.225Z,2.73
2023-05-19T05:05:44.607Z,2.67
2023-05-19T05:08:13.096Z,2.37
2023-05-19T05:10:43.750Z,2.47
2023-05-19T05:13:12.321Z,2.37
2023-05-19T05:15:41.362Z,2.70
2023-05-19T05:18:10.366Z,2.70
2023-05-19T05:20:39.147Z,2.40
2023-05-19T05:23:10.145Z,2.37
2023-05-19T05:25:39.482Z,3.03
2023-05-19T05:28:08.177Z,2.80
2023-05-19T05:30:38.232Z,2.23
2023-05-19T05:33:08.930Z,2.47
2023-05-19T05:35:39.519Z,2.67
2023-05-19T05:38:11.475Z,2.60
2023-05-19T05:40:39.672Z,2.50
2023-05-19T05:43:08.730Z,2.27
2023-05-19T05:45:42.721Z,2.40
2023-05-19T05:48:12.096Z,2.53
2023-05-19T05:50:40.747Z,2.80
2023-05-19T05:53:10.890Z,2.90
2023-05-19T05:55:41.797Z,2.60
2023-05-19T05:58:11.122Z,2.40
2023-05-19T06:00:39.076Z,2.27
2023-05-19T06:03:07.075Z,2.23
2023-05-19T06:05:35.115Z,2.00
2023-05-19T06:08:03.186Z,2.37
2023-05-19T06:10:32.749Z,2.50
2023-05-19T06:13:01.325Z,2.23
2023-05-19T06:15:29.458Z,2.33
2023-05-19T06:18:02.541Z,2.60
2023-05-19T06:20:31.289Z,2.30
2023-05-19T06:22:59.691Z,2.73
2023-05-19T06:25:29.199Z,2.10
2023-05-19T06:27:59.793Z,2.40
2023-05-19T06:30:29.353Z,2.67
2023-05-19T06:33:08.729Z,2.43
2023-05-19T06:35:37.196Z,2.67
2023-05-19T06:38:05.280Z,2.07
2023-05-19T06:40:34.002Z,2.10
2023-05-19T06:43:03.480Z,2.20
2023-05-19T06:45:54.508Z,2.30
2023-05-19T06:48:23.805Z,1.80
2023-05-19T06:50:52.139Z,2.30
2023-05-19T06:53:20.940Z,2.30
2023-05-19T06:55:58.797Z,2.30
2023-05-19T06:58:30.998Z,2.23
2023-05-19T07:01:00.457Z,2.00
2023-05-19T07:03:34.033Z,2.07
2023-05-19T07:06:03.197Z,1.87
2023-05-19T07:08:32.589Z,1.90
2023-05-19T07:11:02.989Z,2.20
2023-05-19T07:13:32.958Z,1.80
2023-05-19T07:16:01.139Z,1.80
2023-05-19T07:18:31.886Z,2.13
2023-05-19T07:20:59.933Z,2.03
2023-05-19T07:23:28.053Z,1.80
2023-05-19T07:25:57.025Z,1.80
2023-05-19T07:28:25.072Z,2.07
2023-05-19T07:30:54.394Z,1.93
2023-05-19T07:33:22.336Z,2.10
2023-05-19T07:35:50.380Z,2.20
2023-05-19T07:38:18.758Z,2.00
2023-05-19T07:40:46.713Z,2.13
2023-05-19T07:43:14.651Z,2.00
2023-05-19T07:45:42.632Z,1.80
2023-05-19T07:48:12.065Z,1.90
2023-05-19T07:50:39.969Z,1.83
2023-05-19T07:53:07.827Z,1.97
2023-05-19T07:55:35.824Z,2.17
2023-05-19T07:58:03.700Z,1.70
2023-05-19T08:00:31.758Z,2.07
2023-05-19T08:03:00.052Z,2.13
2023-05-19T08:05:29.897Z,2.30
2023-05-19T08:07:58.264Z,2.50
2023-05-19T08:10:29.137Z,1.90
2023-05-19T08:12:57.028Z,2.10
2023-05-19T08:15:25.370Z,1.63
2023-05-19T08:17:53.304Z,2.07
2023-05-19T08:20:22.788Z,2.37
2023-05-19T08:22:52.033Z,2.00
2023-05-19T08:25:20.406Z,2.10
2023-05-19T08:27:48.289Z,2.53
2023-05-19T08:30:16.665Z,2.03
2023-05-19T08:32:45.154Z,1.97
2023-05-19T08:35:13.115Z,1.80
2023-05-19T08:37:41.034Z,2.17
2023-05-19T08:40:13.556Z,1.93
2023-05-19T08:42:41.424Z,2.30
2023-05-19T08:45:10.039Z,1.87
2023-05-19T08:47:37.983Z,1.87
2023-05-19T08:50:09.969Z,2.20
2023-05-19T08:52:48.881Z,2.10
2023-05-19T08:55:27.677Z,2.10
2023-05-19T08:57:55.863Z,2.50
2023-05-19T09:00:24.371Z,2.03
2023-05-19T09:03:00.815Z,2.00
2023-05-19T09:05:39.715Z,1.90
2023-05-19T09:08:07.688Z,1.90
2023-05-19T09:10:36.967Z,1.97
2023-05-19T09:13:06.440Z,2.30
2023-05-19T09:15:36.815Z,1.80
2023-05-19T09:18:08.469Z,2.13
2023-05-19T09:20:39.215Z,2.17
2023-05-19T09:23:07.891Z,1.70
2023-05-19T09:25:37.200Z,1.97
2023-05-19T09:28:05.208Z,1.93
2023-05-19T09:30:34.475Z,1.60
2023-05-19T09:33:04.467Z,1.80
2023-05-19T09:35:32.516Z,2.00
2023-05-19T09:38:02.113Z,1.50
2023-05-19T09:40:30.055Z,1.90
2023-05-19T09:42:59.833Z,1.80
2023-05-19T09:45:28.281Z,2.00
2023-05-19T09:47:56.216Z,2.30
2023-05-19T09:50:24.308Z,2.23
2023-05-19T09:52:53.172Z,2.33
2023-05-19T09:55:23.251Z,2.00
2023-05-19T09:57:52.323Z,2.00
2023-05-19T10:00:22.813Z,2.17
2023-05-19T10:02:51.386Z,2.20
2023-05-19T10:05:20.987Z,1.67
2023-05-19T10:07:51.639Z,1.63
2023-05-19T10:10:21.059Z,1.60
2023-05-19T10:12:49.586Z,1.93
2023-05-19T10:15:20.670Z,1.63
2023-05-19T10:17:52.578Z,2.00
2023-05-19T10:20:20.623Z,1.80
2023-05-19T10:22:48.928Z,2.20
2023-05-19T10:25:19.782Z,1.83
2023-05-19T10:27:52.569Z,1.90
2023-05-19T10:30:24.294Z,1.90
2023-05-19T10:32:54.826Z,1.80
2023-05-19T10:35:37.102Z,2.10
2023-05-19T10:38:12.179Z,2.33
2023-05-19T10:40:45.833Z,2.17
2023-05-19T10:43:23.338Z,1.70
2023-05-19T10:45:54.612Z,2.23
2023-05-19T10:48:24.102Z,1.73
2023-05-19T10:50:55.273Z,1.90
2023-05-19T10:53:23.397Z,1.70
2023-05-19T10:55:56.606Z,1.83
2023-05-19T10:58:50.542Z,1.83
2023-05-19T11:01:20.036Z,2.27
2023-05-19T11:03:52.271Z,1.63
2023-05-19T11:06:27.376Z,2.00
2023-05-19T11:08:57.924Z,1.70
2023-05-19T11:11:26.337Z,2.00
2023-05-19T11:13:55.359Z,1.97
2023-05-19T11:16:30.206Z,1.80
2023-05-19T11:19:00.613Z,1.97
2023-05-19T11:21:42.712Z,1.97
2023-05-19T11:24:10.737Z,1.70
2023-05-19T11:26:43.144Z,2.10
2023-05-19T11:29:11.633Z,2.00
2023-05-19T11:31:40.338Z,1.97
2023-05-19T11:34:13.927Z,1.80
2023-05-19T11:36:42.586Z,1.40
2023-05-19T11:39:10.649Z,1.80
2023-05-19T11:41:40.546Z,1.67
2023-05-19T11:44:11.319Z,1.70
2023-05-19T11:46:39.185Z,1.60
2023-05-19T11:49:07.136Z,1.93
2023-05-19T11:51:38.342Z,1.60
2023-05-19T11:54:06.530Z,1.70
2023-05-19T11:56:36.790Z,1.67
2023-05-19T11:59:04.845Z,1.50
2023-05-19T12:01:33.940Z,1.60
2023-05-19T12:04:01.886Z,2.00
2023-05-19T12:06:31.101Z,1.30
2023-05-19T12:09:00.940Z,1.50
2023-05-19T12:11:29.684Z,1.20
2023-05-19T12:13:59.617Z,1.77
2023-05-19T12:16:34.842Z,1.70
2023-05-19T12:19:03.242Z,1.50
2023-05-19T12:21:33.806Z,1.73
2023-05-19T12:24:04.570Z,1.57
2023-05-19T12:26:32.460Z,1.40
2023-05-19T12:29:00.317Z,1.60
2023-05-19T12:31:28.264Z,1.63
2023-05-19T12:33:56.879Z,1.40
2023-05-19T12:36:27.223Z,1.50
2023-05-19T12:38:55.676Z,1.50
2023-05-19T12:41:27.294Z,1.60
2023-05-19T12:43:55.861Z,1.70
2023-05-19T12:46:23.901Z,1.73
2023-05-19T12:48:51.948Z,1.40
2023-05-19T12:51:20.278Z,1.70
2023-05-19T12:53:48.574Z,1.90
2023-05-19T12:56:17.104Z,2.03
2023-05-19T12:58:46.601Z,1.73
2023-05-19T13:01:18.683Z,1.90
2023-05-19T13:03:46.811Z,1.53
2023-05-19T13:06:14.888Z,1.53
2023-05-19T13:08:42.785Z,1.40
2023-05-19T13:11:10.631Z,1.50
2023-05-19T13:13:39.058Z,1.50
2023-05-19T13:16:09.080Z,1.40
2023-05-19T13:18:38.384Z,1.50
2023-05-19T13:21:06.819Z,1.70
2023-05-19T13:23:35.107Z,1.50
2023-05-19T13:26:04.989Z,1.60
2023-05-19T13:28:35.526Z,1.40
2023-05-19T13:31:03.520Z,1.90
2023-05-19T13:33:33.583Z,1.57
2023-05-19T13:36:01.654Z,1.63
2023-05-19T13:38:30.440Z,1.73
2023-05-19T13:40:58.859Z,1.63
2023-05-19T13:43:27.631Z,1.77
2023-05-19T13:45:56.382Z,1.70
2023-05-19T13:48:24.584Z,1.87
2023-05-19T13:50:55.589Z,1.37
2023-05-19T13:53:23.459Z,1.67
2023-05-19T13:55:52.976Z,1.83
2023-05-19T13:58:20.922Z,1.67
2023-05-19T14:00:49.639Z,1.40
2023-05-19T14:03:19.679Z,2.00
2023-05-19T14:05:48.907Z,1.90
2023-05-19T14:08:18.663Z,1.90
2023-05-19T14:10:47.212Z,1.40
2023-05-19T14:15:53.772Z,1.80
2023-05-19T14:18:21.900Z,1.90
2023-05-19T14:20:49.843Z,1.70
2023-05-19T14:23:20.148Z,1.77
2023-05-19T14:25:48.027Z,1.90
2023-05-19T14:28:15.915Z,1.70
2023-05-19T14:30:44.102Z,1.40
2023-05-19T14:33:12.138Z,1.70
2023-05-19T14:35:40.116Z,1.40
2023-05-19T14:38:08.027Z,1.77
2023-05-19T14:40:41.256Z,1.60
2023-05-19T14:43:09.179Z,1.40
2023-05-19T14:45:37.065Z,1.70
2023-05-19T14:48:05.248Z,1.50
2023-05-19T14:50:33.335Z,2.17
2023-05-19T14:53:01.411Z,2.87
2023-05-19T14:55:29.272Z,1.93
2023-05-19T14:57:58.562Z,2.20
2023-05-19T15:00:26.957Z,2.00
2023-05-19T15:02:55.084Z,1.43
2023-05-19T15:05:24.312Z,2.20
2023-05-19T15:07:52.430Z,1.77
2023-05-19T15:10:20.947Z,1.70
2023-05-19T15:12:50.365Z,1.80
2023-05-19T15:15:19.764Z,1.80
2023-05-19T15:17:50.635Z,1.80
2023-05-19T15:20:18.734Z,1.67
2023-05-19T15:22:46.704Z,1.60
2023-05-19T15:25:14.559Z,1.80
2023-05-19T15:27:42.500Z,2.17
2023-05-19T15:30:10.674Z,2.00
2023-05-19T15:32:39.980Z,2.00
2023-05-19T15:35:09.087Z,2.00
2023-05-19T15:37:37.006Z,1.70
2023-05-19T15:40:05.544Z,2.27
2023-05-19T15:42:33.521Z,2.33
2023-05-19T15:45:01.354Z,1.90
2023-05-19T15:47:29.225Z,2.10
2023-05-19T15:49:58.633Z,1.83
2023-05-19T15:52:27.172Z,1.80
2023-05-19T15:54:55.228Z,2.13
2023-05-19T15:57:23.251Z,2.13
2023-05-19T15:59:51.207Z,1.77
2023-05-19T16:02:19.585Z,2.13
2023-05-19T16:04:47.604Z,2.23
2023-05-19T16:07:18.479Z,2.10
2023-05-19T16:09:46.447Z,2.37
2023-05-19T16:12:14.395Z,2.30
2023-05-19T16:14:42.328Z,2.10
2023-05-19T16:17:11.654Z,2.10
2023-05-19T16:19:39.640Z,1.87
2023-05-19T16:22:07.499Z,2.10
2023-05-19T16:24:36.770Z,1.97
2023-05-19T16:27:07.405Z,1.90
2023-05-19T16:29:35.282Z,1.87
2023-05-19T16:32:03.259Z,2.00
2023-05-19T16:34:31.301Z,2.00
2023-05-19T16:36:59.182Z,2.13
2023-05-19T16:39:27.034Z,2.20
2023-05-19T16:41:56.270Z,2.00
2023-05-19T16:44:24.661Z,2.77
2023-05-19T16:46:52.564Z,2.90
2023-05-19T16:49:20.396Z,1.93
2023-05-19T16:51:48.965Z,2.17
2023-05-19T16:54:17.019Z,2.23
2023-05-19T16:56:44.882Z,2.27
2023-05-19T16:59:14.151Z,2.07
2023-05-19T17:01:42.129Z,2.20
2023-05-19T17:04:11.772Z,2.00
2023-05-19T17:06:39.768Z,2.13
2023-05-19T17:09:07.629Z,2.67
2023-05-19T17:11:35.495Z,2.10
2023-05-19T17:14:07.586Z,2.10
2023-05-19T17:16:37.362Z,2.17
2023-05-19T17:19:05.615Z,2.50
2023-05-19T17:21:33.714Z,2.20
2023-05-19T17:24:01.621Z,2.10
2023-05-19T17:26:29.498Z,2.43
2023-05-19T17:28:57.398Z,1.77
2023-05-19T17:31:25.294Z,2.20
2023-05-19T17:33:54.664Z,2.20
2023-05-19T17:36:26.154Z,2.23
2023-05-19T17:38:54.223Z,1.93
2023-05-19T17:41:22.760Z,2.30
2023-05-19T17:43:50.682Z,2.27
2023-05-19T17:46:18.597Z,1.93
2023-05-19T17:48:46.586Z,1.97
2023-05-19T17:51:16.019Z,2.77
2023-05-19T17:53:44.565Z,2.20
2023-05-19T17:56:12.976Z,2.40
2023-05-19T17:58:44.157Z,2.10
2023-05-19T18:01:12.478Z,1.90
2023-05-19T18:03:40.961Z,1.90
2023-05-19T18:06:10.052Z,2.03
2023-05-19T18:08:40.004Z,2.30
2023-05-19T18:11:08.422Z,2.40
2023-05-19T18:13:37.202Z,2.10
2023-05-19T18:16:06.030Z,2.37
2023-05-19T18:18:34.518Z,1.93
2023-05-19T18:21:02.375Z,1.83
2023-05-19T18:23:30.528Z,2.00
2023-05-19T18:25:59.895Z,2.40
2023-05-19T18:28:29.681Z,2.10
2023-05-19T18:31:00.922Z,2.03
2023-05-19T18:33:30.956Z,2.00
2023-05-19T18:35:59.713Z,1.87
2023-05-19T18:38:27.853Z,1.80
2023-05-19T18:40:57.586Z,1.90
2023-05-19T18:43:26.950Z,1.60
2023-05-19T18:45:54.902Z,1.90
2023-05-19T18:48:23.222Z,2.07
2023-05-19T18:50:51.362Z,1.50
2023-05-19T18:53:19.321Z,1.90
2023-05-19T18:55:47.167Z,1.87
2023-05-19T18:58:15.031Z,1.73
2023-05-19T19:00:44.253Z,2.00
2023-05-19T19:03:12.648Z,1.93
2023-05-19T19:05:40.766Z,1.90
2023-05-19T19:08:08.630Z,1.90
2023-05-19T19:10:39.158Z,1.73
2023-05-19T19:13:07.389Z,2.10
2023-05-19T19:15:35.299Z,1.87
2023-05-19T19:18:06.205Z,2.00
2023-05-19T19:20:35.977Z,2.10
2023-05-19T19:23:06.414Z,2.00
2023-05-19T19:25:34.523Z,2.47
2023-05-19T19:28:02.478Z,2.00
2023-05-19T19:30:30.526Z,2.07
2023-05-19T19:32:59.484Z,1.80
2023-05-19T19:35:28.853Z,2.10
2023-05-19T19:37:56.770Z,1.80
2023-05-19T19:40:24.927Z,2.03
2023-05-19T19:42:52.793Z,1.90
2023-05-19T19:45:20.924Z,2.10
2023-05-19T19:47:48.855Z,2.07
2023-05-19T19:50:17.043Z,1.93
2023-05-19T19:52:46.387Z,2.30
2023-05-19T19:55:14.536Z,1.90
2023-05-19T19:57:44.873Z,2.23
2023-05-19T20:00:13.872Z,2.13
2023-05-19T20:02:55.870Z,2.10
2023-05-19T20:05:30.288Z,1.77
2023-05-19T20:07:59.742Z,2.13
2023-05-19T20:10:27.922Z,1.70
2023-05-19T20:12:55.966Z,2.20
2023-05-19T20:15:23.890Z,1.90
2023-05-19T20:17:51.786Z,2.20
2023-05-19T20:20:20.457Z,1.73
2023-05-19T20:22:48.820Z,1.87
2023-05-19T20:25:18.124Z,1.87
2023-05-19T20:27:46.041Z,2.27
2023-05-19T20:30:13.891Z,2.00
2023-05-19T20:32:41.804Z,2.10
2023-05-19T20:35:09.990Z,8.77
2023-05-19T20:37:37.857Z,13.40
2023-05-19T20:40:07.433Z,10.70
2023-05-19T20:42:36.688Z,5.47
2023-05-19T20:45:05.049Z,3.63
2023-05-19T20:47:33.054Z,3.90
2023-05-19T20:50:01.086Z,3.00
2023-05-19T20:52:29.045Z,2.40
2023-05-19T20:54:56.951Z,2.10
2023-05-19T20:57:25.667Z,2.33
2023-05-19T20:59:56.416Z,1.90
2023-05-19T21:02:24.315Z,2.07
2023-05-19T21:04:52.173Z,2.00
2023-05-19T21:07:20.068Z,2.00
2023-05-19T21:09:50.377Z,2.03
2023-05-19T21:12:21.183Z,2.30
2023-05-19T21:14:49.743Z,2.03
2023-05-19T21:17:21.034Z,1.90
2023-05-19T21:19:50.557Z,2.10
2023-05-19T21:22:18.673Z,2.50
2023-05-19T21:24:46.726Z,2.10
2023-05-19T21:27:14.617Z,2.20
2023-05-19T21:29:42.535Z,2.10
2023-05-19T21:32:10.392Z,2.23
2023-05-19T21:34:39.952Z,2.30
2023-05-19T21:37:07.798Z,2.20
2023-05-19T21:39:36.006Z,1.90
2023-05-19T21:42:03.937Z,2.30
2023-05-19T21:44:32.474Z,2.03
2023-05-19T21:47:00.525Z,2.53
2023-05-19T21:49:28.539Z,2.43
2023-05-19T21:51:57.743Z,2.30
2023-05-19T21:54:25.689Z,2.23
2023-05-19T21:56:53.540Z,2.57
2023-05-19T21:59:23.241Z,2.47
2023-05-19T22:01:51.632Z,2.47
2023-05-19T22:04:20.484Z,2.30
2023-05-19T22:06:48.800Z,2.50
2023-05-19T22:09:18.125Z,2.90
2023-05-19T22:11:46.318Z,2.13
2023-05-19T22:14:14.281Z,2.53
2023-05-19T22:16:42.217Z,2.20
2023-05-19T22:19:10.533Z,2.47
2023-05-19T22:21:38.493Z,2.30
2023-05-19T22:24:07.004Z,2.40
2023-05-19T22:26:36.361Z,2.50
2023-05-19T22:29:04.457Z,2.30
2023-05-19T22:31:32.493Z,2.60
2023-05-19T22:34:01.175Z,2.50
2023-05-19T22:36:29.236Z,2.60
2023-05-19T22:38:57.560Z,2.20
2023-05-19T22:41:25.656Z,2.80
2023-05-19T22:43:54.856Z,2.40
2023-05-19T22:46:22.791Z,2.73
2023-05-19T22:48:50.684Z,2.67
2023-05-19T22:51:18.763Z,2.80
2023-05-19T22:53:48.425Z,2.63
2023-05-19T22:56:17.269Z,2.10
2023-05-19T22:58:45.138Z,2.20
2023-05-19T23:01:14.431Z,2.70
2023-05-19T23:03:42.359Z,2.20
2023-05-19T23:06:10.238Z,2.80
2023-05-19T23:08:38.218Z,2.77
2023-05-19T23:11:06.230Z,2.50
2023-05-19T23:13:34.075Z,2.63
2023-05-19T23:16:02.030Z,2.77
2023-05-19T23:18:31.287Z,2.50
2023-05-19T23:20:59.116Z,2.50
2023-05-19T23:23:27.690Z,2.47
2023-05-19T23:25:57.524Z,2.43
2023-05-19T23:28:25.502Z,2.83
2023-05-19T23:30:54.124Z,2.60
2023-05-19T23:33:22.186Z,2.90
2023-05-19T23:35:51.439Z,2.57
2023-05-19T23:38:19.299Z,2.90
2023-05-19T23:40:47.131Z,2.80
2023-05-19T23:43:15.053Z,2.43
2023-05-19T23:45:42.964Z,2.80
2023-05-19T23:48:11.186Z,2.63
2023-05-19T23:50:39.220Z,2.93
2023-05-19T23:53:08.660Z,2.63
2023-05-19T23:55:36.727Z,2.67
2023-05-19T23:58:04.794Z,3.30
